createdAt,value
2018-05-21T00:00:10.310Z,0
2018-05-21T00:01:10.354Z,0
2018-05-21T00:02:10.355Z,0
2018-05-21T00:03:10.349Z,0
2018-05-21T00:04:10.483Z,0
2018-05-21T00:05:10.418Z,0
2018-05-21T00:06:10.422Z,0
2018-05-21T00:07:10.361Z,0
2018-05-21T00:08:10.424Z,0
2018-05-21T00:09:10.422Z,0
2018-05-21T00:10:10.424Z,0
2018-05-21T00:11:10.391Z,0
2018-05-21T00:12:10.389Z,0
2018-05-21T00:13:10.386Z,0
2018-05-21T00:14:10.345Z,0
2018-05-21T00:15:10.448Z,0
2018-05-21T00:16:10.388Z,0
2018-05-21T00:17:10.457Z,0
2018-05-21T00:18:10.426Z,0
2018-05-21T00:19:10.471Z,0
2018-05-21T00:20:10.445Z,0
2018-05-21T00:21:10.369Z,0
2018-05-21T00:22:10.420Z,0
2018-05-21T00:23:10.306Z,0
2018-05-21T00:24:10.360Z,0
2018-05-21T00:25:10.362Z,0
2018-05-21T00:26:10.422Z,0
2018-05-21T00:27:10.333Z,0
2018-05-21T00:28:10.365Z,0
2018-05-21T00:29:10.396Z,0
2018-05-21T00:30:10.390Z,0
2018-05-21T00:31:10.405Z,0
2018-05-21T00:32:10.469Z,0
2018-05-21T00:33:10.391Z,0
2018-05-21T00:34:10.452Z,0
2018-05-21T00:35:10.409Z,0
2018-05-21T00:36:10.379Z,0
2018-05-21T00:37:10.443Z,0
2018-05-21T00:38:10.420Z,0
2018-05-21T00:39:10.467Z,0
2018-05-21T00:40:10.363Z,0
2018-05-21T00:41:10.470Z,0
2018-05-21T00:42:10.468Z,0
2018-05-21T00:43:10.467Z,0
2018-05-21T00:44:10.446Z,0
2018-05-21T00:45:10.420Z,0
2018-05-21T00:46:10.419Z,0
2018-05-21T00:47:10.422Z,0
2018-05-21T00:48:10.515Z,0
2018-05-21T00:49:10.425Z,0
2018-05-21T00:50:10.488Z,0
2018-05-21T00:51:10.448Z,0
2018-05-21T00:52:10.448Z,0
2018-05-21T00:53:10.451Z,0
2018-05-21T00:54:10.387Z,0
2018-05-21T00:55:10.453Z,0
2018-05-21T00:56:10.451Z,0
2018-05-21T00:57:10.425Z,0
2018-05-21T00:58:10.391Z,0
2018-05-21T00:59:10.457Z,0
2018-05-21T01:00:10.392Z,0
2018-05-21T01:01:10.458Z,0
2018-05-21T01:02:10.462Z,0
2018-05-21T01:03:10.466Z,0
2018-05-21T01:04:10.457Z,0
2018-05-21T01:05:10.458Z,0
2018-05-21T01:06:10.397Z,0
2018-05-21T01:07:10.459Z,0
2018-05-21T01:08:10.462Z,0
2018-05-21T01:09:10.466Z,0
2018-05-21T01:10:10.431Z,0
2018-05-21T01:11:10.485Z,0
2018-05-21T01:12:10.503Z,0
2018-05-21T01:13:10.440Z,0
2018-05-21T01:14:10.426Z,0
2018-05-21T01:15:10.364Z,0
2018-05-21T01:16:10.453Z,0
2018-05-21T01:17:10.441Z,0
2018-05-21T01:18:10.411Z,0
2018-05-21T01:19:10.392Z,0
2018-05-21T01:20:10.435Z,0
2018-05-21T01:21:10.470Z,0
2018-05-21T01:22:10.469Z,0
2018-05-21T01:23:10.408Z,0
2018-05-21T01:24:10.471Z,0
2018-05-21T01:25:10.409Z,0
2018-05-21T01:26:10.439Z,0
2018-05-21T01:27:10.412Z,0
2018-05-21T01:28:10.418Z,0
2018-05-21T01:29:10.476Z,0
2018-05-21T01:30:10.480Z,0
2018-05-21T01:31:10.415Z,0
2018-05-21T01:32:10.449Z,0
2018-05-21T01:33:10.436Z,0
2018-05-21T01:34:10.477Z,0
2018-05-21T01:35:10.431Z,0
2018-05-21T01:36:10.498Z,0
2018-05-21T01:37:10.403Z,0
2018-05-21T01:38:10.479Z,0
2018-05-21T01:39:10.443Z,0
2018-05-21T01:40:10.413Z,0
2018-05-21T01:41:10.459Z,0
2018-05-21T01:42:10.414Z,0
2018-05-21T01:43:10.486Z,0
2018-05-21T01:44:10.420Z,0
2018-05-21T01:45:10.369Z,0
2018-05-21T01:46:10.426Z,0
2018-05-21T01:47:10.499Z,0
2018-05-21T01:48:10.422Z,0
2018-05-21T01:49:10.494Z,0
2018-05-21T01:50:10.509Z,0
2018-05-21T01:51:10.424Z,0
2018-05-21T01:52:10.395Z,0
2018-05-21T01:53:10.491Z,0
2018-05-21T01:54:10.512Z,0
2018-05-21T01:55:10.454Z,0
2018-05-21T01:56:10.491Z,0
2018-05-21T01:57:10.410Z,0
2018-05-21T01:58:10.391Z,0
2018-05-21T01:59:10.398Z,0
2018-05-21T02:00:10.492Z,0
2018-05-21T02:01:10.473Z,0
2018-05-21T02:02:10.417Z,0
2018-05-21T02:03:10.457Z,0
2018-05-21T02:04:10.498Z,0
2018-05-21T02:05:10.530Z,0
2018-05-21T02:06:10.423Z,0
2018-05-21T02:07:10.524Z,0
2018-05-21T02:08:10.414Z,0
2018-05-21T02:09:10.400Z,0
2018-05-21T02:10:10.478Z,0
2018-05-21T02:11:10.476Z,0
2018-05-21T02:12:10.481Z,0
2018-05-21T02:13:10.487Z,0
2018-05-21T02:14:10.512Z,0
2018-05-21T02:15:10.543Z,0
2018-05-21T02:16:10.427Z,0
2018-05-21T02:17:10.411Z,0
2018-05-21T02:18:10.508Z,0
2018-05-21T02:19:10.513Z,0
2018-05-21T02:20:10.488Z,0
2018-05-21T02:21:10.482Z,0
2018-05-21T02:22:10.513Z,0
2018-05-21T02:23:10.449Z,0
2018-05-21T02:24:10.507Z,0
2018-05-21T02:25:10.517Z,0
2018-05-21T02:26:10.444Z,0
2018-05-21T02:27:10.511Z,0
2018-05-21T02:28:10.519Z,0
2018-05-21T02:29:10.517Z,0
2018-05-21T02:30:10.516Z,0
2018-05-21T02:31:10.455Z,0
2018-05-21T02:32:10.484Z,0
2018-05-21T02:33:10.455Z,0
2018-05-21T02:34:10.519Z,0
2018-05-21T02:35:10.464Z,4
2018-05-21T02:36:10.517Z,4
2018-05-21T02:37:10.454Z,4
2018-05-21T02:38:10.454Z,4
2018-05-21T02:39:10.522Z,4
2018-05-21T02:40:10.514Z,4
2018-05-21T02:41:10.538Z,4
2018-05-21T02:42:10.503Z,4
2018-05-21T02:43:10.547Z,8
2018-05-21T02:44:10.502Z,8
2018-05-21T02:45:10.563Z,8
2018-05-21T02:46:10.422Z,8
2018-05-21T02:47:10.525Z,12
2018-05-21T02:48:10.450Z,12
2018-05-21T02:49:10.492Z,16
2018-05-21T02:50:10.484Z,16
2018-05-21T02:51:10.484Z,20
2018-05-21T02:52:10.524Z,20
2018-05-21T02:53:10.452Z,24
2018-05-21T02:54:10.530Z,28
2018-05-21T02:55:10.548Z,36
2018-05-21T02:56:10.506Z,40
2018-05-21T02:57:10.435Z,44
2018-05-21T02:58:10.439Z,52
2018-05-21T02:59:10.440Z,56
2018-05-21T03:00:10.503Z,68
2018-05-21T03:01:10.491Z,76
2018-05-21T03:02:10.488Z,84
2018-05-21T03:03:10.535Z,100
2018-05-21T03:04:10.537Z,112
2018-05-21T03:05:10.535Z,124
2018-05-21T03:06:10.497Z,140
2018-05-21T03:07:10.437Z,156
2018-05-21T03:08:10.451Z,176
2018-05-21T03:09:10.505Z,200
2018-05-21T03:10:10.566Z,224
2018-05-21T03:11:10.588Z,248
2018-05-21T03:12:10.446Z,276
2018-05-21T03:13:10.559Z,312
2018-05-21T03:14:10.521Z,348
2018-05-21T03:15:10.558Z,384
2018-05-21T03:16:10.549Z,428
2018-05-21T03:17:10.563Z,472
2018-05-21T03:18:10.569Z,520
2018-05-21T03:19:10.548Z,564
2018-05-21T03:20:10.470Z,620
2018-05-21T03:21:10.590Z,680
2018-05-21T03:22:10.522Z,740
2018-05-21T03:23:10.501Z,800
2018-05-21T03:24:10.489Z,864
2018-05-21T03:25:10.549Z,940
2018-05-21T03:26:10.486Z,1020
2018-05-21T03:27:10.551Z,1096
2018-05-21T03:28:10.511Z,1180
2018-05-21T03:29:10.580Z,1268
2018-05-21T03:30:10.530Z,1352
2018-05-21T03:31:10.569Z,1448
2018-05-21T03:32:10.454Z,1544
2018-05-21T03:33:10.525Z,1640
2018-05-21T03:34:10.476Z,1736
2018-05-21T03:35:10.460Z,1840
2018-05-21T03:36:10.534Z,1936
2018-05-21T03:37:10.595Z,2084
2018-05-21T03:38:10.498Z,2220
2018-05-21T03:39:10.514Z,2336
2018-05-21T03:40:10.580Z,2452
2018-05-21T03:41:10.555Z,2564
2018-05-21T03:42:10.558Z,2688
2018-05-21T03:43:10.537Z,2812
2018-05-21T03:44:10.561Z,2932
2018-05-21T03:45:10.606Z,3064
2018-05-21T03:46:10.579Z,3184
2018-05-21T03:47:10.538Z,3320
2018-05-21T03:48:10.582Z,3448
2018-05-21T03:49:10.525Z,3580
2018-05-21T03:50:10.489Z,3712
2018-05-21T03:51:10.565Z,3836
2018-05-21T03:52:10.534Z,3968
2018-05-21T03:53:10.563Z,4104
2018-05-21T03:54:10.470Z,4240
2018-05-21T03:55:10.534Z,4372
2018-05-21T03:56:10.470Z,4504
2018-05-21T03:57:10.566Z,4636
2018-05-21T03:58:10.542Z,4820
2018-05-21T03:59:10.603Z,4964
2018-05-21T04:00:10.593Z,5100
2018-05-21T04:01:10.526Z,5236
2018-05-21T04:02:10.517Z,5372
2018-05-21T04:03:10.431Z,5528
2018-05-21T04:04:10.438Z,5668
2018-05-21T04:05:10.475Z,5792
2018-05-21T04:06:10.474Z,5936
2018-05-21T04:07:10.473Z,6072
2018-05-21T04:08:10.471Z,6212
2018-05-21T04:09:10.524Z,6348
2018-05-21T04:10:10.463Z,6488
2018-05-21T04:11:10.589Z,6632
2018-05-21T04:12:10.562Z,6772
2018-05-21T04:13:10.598Z,6908
2018-05-21T04:14:10.605Z,7048
2018-05-21T04:15:10.583Z,7184
2018-05-21T04:16:10.610Z,7316
2018-05-21T04:17:10.541Z,7456
2018-05-21T04:18:10.582Z,7588
2018-05-21T04:19:10.606Z,7728
2018-05-21T04:20:10.616Z,7860
2018-05-21T04:21:10.485Z,7992
2018-05-21T04:22:10.472Z,8124
2018-05-21T04:23:10.577Z,8260
2018-05-21T04:24:10.580Z,8392
2018-05-21T04:25:10.576Z,8528
2018-05-21T04:26:10.494Z,8668
2018-05-21T04:27:10.587Z,8800
2018-05-21T04:28:10.609Z,8936
2018-05-21T04:29:10.489Z,9080
2018-05-21T04:30:10.591Z,9208
2018-05-21T04:31:10.587Z,9340
2018-05-21T04:32:10.621Z,9488
2018-05-21T04:33:10.494Z,9632
2018-05-21T04:34:10.572Z,9772
2018-05-21T04:35:10.620Z,10192
2018-05-21T04:36:10.619Z,10328
2018-05-21T04:37:10.495Z,10472
2018-05-21T04:38:10.619Z,10600
2018-05-21T04:39:10.635Z,10736
2018-05-21T04:40:10.494Z,10876
2018-05-21T04:41:10.554Z,11008
2018-05-21T04:42:10.594Z,11148
2018-05-21T04:43:10.559Z,11288
2018-05-21T04:44:10.580Z,11424
2018-05-21T04:45:10.602Z,11544
2018-05-21T04:46:10.555Z,11672
2018-05-21T04:47:10.508Z,11796
2018-05-21T04:48:10.520Z,11924
2018-05-21T04:49:10.575Z,12048
2018-05-21T04:50:10.540Z,12172
2018-05-21T04:51:10.603Z,12308
2018-05-21T04:52:10.634Z,12452
2018-05-21T04:53:10.696Z,12580
2018-05-21T04:54:10.639Z,12708
2018-05-21T04:55:10.570Z,12832
2018-05-21T04:56:10.627Z,12952
2018-05-21T04:57:10.578Z,13092
2018-05-21T04:58:10.575Z,13220
2018-05-21T04:59:10.631Z,13352
2018-05-21T05:00:10.588Z,13468
2018-05-21T05:01:10.586Z,13584
2018-05-21T05:02:10.635Z,13692
2018-05-21T05:03:10.570Z,13812
2018-05-21T05:04:10.518Z,13936
2018-05-21T05:05:10.647Z,14064
2018-05-21T05:06:10.581Z,14192
2018-05-21T05:07:10.668Z,14320
2018-05-21T05:08:10.574Z,14428
2018-05-21T05:09:10.588Z,14540
2018-05-21T05:10:10.540Z,14676
2018-05-21T05:11:10.544Z,14692
2018-05-21T05:12:10.557Z,14792
2018-05-21T05:13:10.614Z,14912
2018-05-21T05:14:10.502Z,15024
2018-05-21T05:15:10.489Z,15168
2018-05-21T05:16:10.562Z,15304
2018-05-21T05:17:10.559Z,15412
2018-05-21T05:18:10.604Z,15524
2018-05-21T05:19:10.606Z,15628
2018-05-21T05:20:10.529Z,15724
2018-05-21T05:21:10.670Z,15844
2018-05-21T05:22:10.522Z,15948
2018-05-21T05:23:10.567Z,16068
2018-05-21T05:24:10.480Z,16188
2018-05-21T05:25:10.633Z,16308
2018-05-21T05:26:10.553Z,16400
2018-05-21T05:27:10.526Z,16500
2018-05-21T05:28:10.480Z,16620
2018-05-21T05:29:10.560Z,16780
2018-05-21T05:30:10.578Z,16928
2018-05-21T05:31:10.510Z,17040
2018-05-21T05:32:10.563Z,17156
2018-05-21T05:33:10.631Z,17244
2018-05-21T05:34:10.574Z,17336
2018-05-21T05:35:10.566Z,17460
2018-05-21T05:36:10.564Z,17568
2018-05-21T05:37:10.564Z,17684
2018-05-21T05:38:10.567Z,17776
2018-05-21T05:39:10.634Z,17916
2018-05-21T05:40:10.569Z,18348
2018-05-21T05:41:10.635Z,22944
2018-05-21T05:42:10.741Z,57120
2018-05-21T05:43:10.576Z,96576
2018-05-21T05:44:10.639Z,105120
2018-05-21T05:45:10.639Z,73472
2018-05-21T05:46:10.577Z,89440
2018-05-21T05:47:10.574Z,140864
2018-05-21T05:48:10.640Z,130368
2018-05-21T05:49:10.572Z,107936
2018-05-21T05:50:10.664Z,93408
2018-05-21T05:51:10.578Z,92896
2018-05-21T05:52:10.515Z,83712
2018-05-21T05:53:10.619Z,77664
2018-05-21T05:54:10.514Z,74752
2018-05-21T05:55:10.627Z,73824
2018-05-21T05:56:10.500Z,70080
2018-05-21T05:57:10.627Z,64640
2018-05-21T05:58:10.512Z,59712
2018-05-21T05:59:10.521Z,56160
2018-05-21T06:00:10.625Z,53856
2018-05-21T06:01:10.605Z,50112
2018-05-21T06:02:10.686Z,60704
2018-05-21T06:03:10.683Z,56256
2018-05-21T06:04:10.603Z,56960
2018-05-21T06:05:10.557Z,57536
2018-05-21T06:06:10.611Z,58816
2018-05-21T06:07:10.629Z,59424
2018-05-21T06:08:10.552Z,59040
2018-05-21T06:09:10.622Z,60288
2018-05-21T06:10:10.675Z,60224
2018-05-21T06:11:10.732Z,60288
2018-05-21T06:12:10.563Z,62240
2018-05-21T06:13:10.600Z,63712
2018-05-21T06:14:10.645Z,65248
2018-05-21T06:15:10.564Z,66208
2018-05-21T06:16:10.592Z,66688
2018-05-21T06:17:10.543Z,66496
2018-05-21T06:18:10.645Z,66784
2018-05-21T06:19:10.653Z,66592
2018-05-21T06:20:10.596Z,65856
2018-05-21T06:21:10.644Z,65312
2018-05-21T06:22:10.591Z,66048
2018-05-21T06:23:10.600Z,66752
2018-05-21T06:24:10.662Z,67904
2018-05-21T06:25:10.600Z,68320
2018-05-21T06:26:10.665Z,68352
2018-05-21T06:27:10.593Z,67808
2018-05-21T06:28:10.663Z,66528
2018-05-21T06:29:10.594Z,67168
2018-05-21T06:30:10.672Z,67712
2018-05-21T06:31:10.604Z,68736
2018-05-21T06:32:10.666Z,69504
2018-05-21T06:33:10.669Z,70688
2018-05-21T06:34:10.787Z,71584
2018-05-21T06:35:10.604Z,72352
2018-05-21T06:36:10.670Z,72704
2018-05-21T06:37:10.609Z,72640
2018-05-21T06:38:10.673Z,73664
2018-05-21T06:39:10.606Z,75072
2018-05-21T06:40:10.671Z,76992
2018-05-21T06:41:10.681Z,79136
2018-05-21T06:42:10.663Z,80864
2018-05-21T06:43:10.673Z,82848
2018-05-21T06:44:10.602Z,83168
2018-05-21T06:45:10.610Z,82464
2018-05-21T06:46:10.675Z,81856
2018-05-21T06:47:10.565Z,80448
2018-05-21T06:48:10.614Z,80224
2018-05-21T06:49:10.582Z,80864
2018-05-21T06:50:10.566Z,81504
2018-05-21T06:51:10.670Z,82144
2018-05-21T06:52:10.686Z,83744
2018-05-21T06:53:10.683Z,83936
2018-05-21T06:54:10.614Z,84736
2018-05-21T06:55:10.616Z,84096
2018-05-21T06:56:10.685Z,81824
2018-05-21T06:57:10.622Z,79744
2018-05-21T06:58:10.703Z,78176
2018-05-21T06:59:10.644Z,79296
2018-05-21T07:00:10.619Z,83040
2018-05-21T07:01:10.613Z,88384
2018-05-21T07:02:10.708Z,93312
2018-05-21T07:03:10.658Z,96736
2018-05-21T07:04:10.766Z,98688
2018-05-21T07:05:10.728Z,99104
2018-05-21T07:06:10.668Z,97376
2018-05-21T07:07:10.650Z,95456
2018-05-21T07:08:10.692Z,93440
2018-05-21T07:09:10.710Z,91040
2018-05-21T07:10:10.669Z,89376
2018-05-21T07:11:10.768Z,88576
2018-05-21T07:12:10.629Z,89280
2018-05-21T07:13:10.695Z,91136
2018-05-21T07:14:10.693Z,93728
2018-05-21T07:15:10.696Z,96128
2018-05-21T07:16:10.696Z,98112
2018-05-21T07:17:10.695Z,99168
2018-05-21T07:18:10.719Z,98880
2018-05-21T07:19:10.698Z,97504
2018-05-21T07:20:10.632Z,96480
2018-05-21T07:21:10.703Z,96064
2018-05-21T07:22:10.703Z,95232
2018-05-21T07:23:10.699Z,95200
2018-05-21T07:24:10.665Z,96608
2018-05-21T07:25:10.646Z,99680
2018-05-21T07:26:10.639Z,101952
2018-05-21T07:27:10.704Z,103680
2018-05-21T07:28:10.704Z,104096
2018-05-21T07:29:10.708Z,103264
2018-05-21T07:30:10.636Z,101728
2018-05-21T07:31:10.641Z,99552
2018-05-21T07:32:10.711Z,97440
2018-05-21T07:33:10.684Z,95392
2018-05-21T07:34:10.730Z,93632
2018-05-21T07:35:10.723Z,92576
2018-05-21T07:36:10.734Z,92448
2018-05-21T07:37:10.608Z,93280
2018-05-21T07:38:10.683Z,94176
2018-05-21T07:39:10.617Z,96640
2018-05-21T07:40:10.685Z,99296
2018-05-21T07:41:10.733Z,102304
2018-05-21T07:42:10.680Z,104000
2018-05-21T07:43:10.716Z,106272
2018-05-21T07:44:10.620Z,107392
2018-05-21T07:45:10.685Z,108256
2018-05-21T07:46:10.754Z,107872
2018-05-21T07:47:10.750Z,106272
2018-05-21T07:48:10.636Z,104736
2018-05-21T07:49:10.676Z,102688
2018-05-21T07:50:10.622Z,100704
2018-05-21T07:51:10.698Z,101056
2018-05-21T07:52:10.721Z,103744
2018-05-21T07:53:10.585Z,106880
2018-05-21T07:54:10.629Z,111712
2018-05-21T07:55:10.706Z,117760
2018-05-21T07:56:10.710Z,122208
2018-05-21T07:57:10.711Z,125152
2018-05-21T07:58:10.695Z,125248
2018-05-21T07:59:10.722Z,124288
2018-05-21T08:00:10.701Z,121952
2018-05-21T08:01:10.591Z,118944
2018-05-21T08:02:10.652Z,115552
2018-05-21T08:03:10.673Z,113472
2018-05-21T08:04:10.662Z,115648
2018-05-21T08:05:10.686Z,118272
2018-05-21T08:06:10.733Z,120800
2018-05-21T08:07:10.741Z,123360
2018-05-21T08:08:10.732Z,124288
2018-05-21T08:09:10.737Z,123520
2018-05-21T08:10:10.668Z,120128
2018-05-21T08:11:10.736Z,117248
2018-05-21T08:12:10.674Z,116640
2018-05-21T08:13:10.731Z,116832
2018-05-21T08:14:10.734Z,116416
2018-05-21T08:15:10.736Z,117472
2018-05-21T08:16:10.672Z,119264
2018-05-21T08:17:10.664Z,120640
2018-05-21T08:18:10.669Z,119584
2018-05-21T08:19:10.702Z,119360
2018-05-21T08:20:10.685Z,120064
2018-05-21T08:21:10.738Z,120928
2018-05-21T08:22:10.751Z,120032
2018-05-21T08:23:10.716Z,117888
2018-05-21T08:24:10.843Z,118080
2018-05-21T08:25:10.780Z,120352
2018-05-21T08:26:10.706Z,119072
2018-05-21T08:27:10.752Z,118816
2018-05-21T08:28:10.716Z,120416
2018-05-21T08:29:10.726Z,124320
2018-05-21T08:30:10.744Z,126880
2018-05-21T08:31:10.728Z,127136
2018-05-21T08:32:10.651Z,125760
2018-05-21T08:33:10.782Z,124864
2018-05-21T08:34:10.874Z,121408
2018-05-21T08:35:10.711Z,117984
2018-05-21T08:36:10.775Z,117984
2018-05-21T08:37:10.780Z,120448
2018-05-21T08:38:10.727Z,122240
2018-05-21T08:39:10.724Z,124736
2018-05-21T08:40:10.659Z,125952
2018-05-21T08:41:10.773Z,126720
2018-05-21T08:42:10.722Z,125344
2018-05-21T08:43:10.708Z,121600
2018-05-21T08:44:10.717Z,117568
2018-05-21T08:45:10.688Z,116352
2018-05-21T08:46:10.752Z,118400
2018-05-21T08:47:10.791Z,123552
2018-05-21T08:48:10.710Z,131648
2018-05-21T08:49:10.712Z,136992
2018-05-21T08:50:10.776Z,140096
2018-05-21T08:51:10.714Z,140480
2018-05-21T08:52:10.739Z,136896
2018-05-21T08:53:10.757Z,130688
2018-05-21T08:54:10.693Z,123232
2018-05-21T08:55:10.812Z,118080
2018-05-21T08:56:10.824Z,115424
2018-05-21T08:57:10.762Z,113952
2018-05-21T08:58:10.760Z,114016
2018-05-21T08:59:10.730Z,115552
2018-05-21T09:00:10.761Z,120352
2018-05-21T09:01:10.757Z,125120
2018-05-21T09:02:10.761Z,129664
2018-05-21T09:03:10.773Z,134176
2018-05-21T09:04:10.768Z,136256
2018-05-21T09:05:10.743Z,136800
2018-05-21T09:06:10.671Z,135072
2018-05-21T09:07:10.737Z,134944
2018-05-21T09:08:10.706Z,135744
2018-05-21T09:09:10.746Z,135008
2018-05-21T09:10:10.883Z,133568
2018-05-21T09:11:10.789Z,131968
2018-05-21T09:12:10.735Z,131584
2018-05-21T09:13:10.754Z,130688
2018-05-21T09:14:10.730Z,129120
2018-05-21T09:15:10.815Z,130560
2018-05-21T09:16:10.713Z,133600
2018-05-21T09:17:10.811Z,137216
2018-05-21T09:18:10.697Z,143776
2018-05-21T09:19:10.743Z,143744
2018-05-21T09:20:10.739Z,148672
2018-05-21T09:21:10.800Z,151616
2018-05-21T09:22:10.808Z,150752
2018-05-21T09:23:10.743Z,148192
2018-05-21T09:24:10.762Z,145344
2018-05-21T09:25:10.734Z,143200
2018-05-21T09:26:10.843Z,140864
2018-05-21T09:27:10.689Z,138336
2018-05-21T09:28:10.778Z,139136
2018-05-21T09:29:10.691Z,136800
2018-05-21T09:30:10.759Z,136000
2018-05-21T09:31:10.693Z,134592
2018-05-21T09:32:10.755Z,133280
2018-05-21T09:33:10.785Z,134016
2018-05-21T09:34:10.782Z,131712
2018-05-21T09:35:10.729Z,135424
2018-05-21T09:36:10.747Z,141312
2018-05-21T09:37:10.815Z,144576
2018-05-21T09:38:10.789Z,143488
2018-05-21T09:39:10.789Z,141728
2018-05-21T09:40:10.761Z,142784
2018-05-21T09:41:10.793Z,139424
2018-05-21T09:42:10.728Z,137184
2018-05-21T09:43:10.781Z,140096
2018-05-21T09:44:10.786Z,143392
2018-05-21T09:45:10.787Z,150208
2018-05-21T09:46:10.788Z,152928
2018-05-21T09:47:10.783Z,155424
2018-05-21T09:48:10.786Z,156640
2018-05-21T09:49:10.700Z,152768
2018-05-21T09:50:10.668Z,146976
2018-05-21T09:51:10.788Z,142368
2018-05-21T09:52:10.698Z,138976
2018-05-21T09:53:10.799Z,137216
2018-05-21T09:54:10.798Z,142496
2018-05-21T09:55:10.806Z,148192
2018-05-21T09:56:10.730Z,155552
2018-05-21T09:57:10.806Z,163072
2018-05-21T09:58:10.866Z,165088
2018-05-21T09:59:10.801Z,168160
2018-05-21T10:00:10.801Z,165248
2018-05-21T10:01:10.742Z,161344
2018-05-21T10:02:10.808Z,156704
2018-05-21T10:03:10.708Z,153856
2018-05-21T10:04:10.764Z,152480
2018-05-21T10:05:10.835Z,154944
2018-05-21T10:06:10.809Z,156576
2018-05-21T10:07:10.788Z,153120
2018-05-21T10:08:10.836Z,155008
2018-05-21T10:09:10.767Z,152224
2018-05-21T10:10:10.842Z,145344
2018-05-21T10:11:10.787Z,140032
2018-05-21T10:12:10.759Z,140032
2018-05-21T10:13:10.792Z,139776
2018-05-21T10:14:10.780Z,142784
2018-05-21T10:15:10.835Z,147392
2018-05-21T10:16:10.831Z,152480
2018-05-21T10:17:10.852Z,158560
2018-05-21T10:18:10.786Z,156064
2018-05-21T10:19:10.841Z,152800
2018-05-21T10:20:10.834Z,150912
2018-05-21T10:21:10.725Z,149248
2018-05-21T10:22:10.793Z,150976
2018-05-21T10:23:10.818Z,150688
2018-05-21T10:24:10.752Z,149952
2018-05-21T10:25:10.821Z,147200
2018-05-21T10:26:10.812Z,144288
2018-05-21T10:27:10.757Z,143360
2018-05-21T10:28:10.836Z,143904
2018-05-21T10:29:10.831Z,142528
2018-05-21T10:30:10.754Z,141952
2018-05-21T10:31:10.828Z,142464
2018-05-21T10:32:10.823Z,146720
2018-05-21T10:33:10.831Z,148704
2018-05-21T10:34:10.759Z,151360
2018-05-21T10:35:10.758Z,154496
2018-05-21T10:36:10.831Z,157504
2018-05-21T10:37:10.787Z,163360
2018-05-21T10:38:10.831Z,168128
2018-05-21T10:39:10.828Z,170560
2018-05-21T10:40:10.763Z,170784
2018-05-21T10:41:10.831Z,168192
2018-05-21T10:42:10.832Z,161600
2018-05-21T10:43:10.867Z,152480
2018-05-21T10:44:10.740Z,143776
2018-05-21T10:45:10.872Z,135936
2018-05-21T10:46:10.754Z,135616
2018-05-21T10:47:10.861Z,139104
2018-05-21T10:48:10.807Z,144768
2018-05-21T10:49:10.865Z,148672
2018-05-21T10:50:10.875Z,151040
2018-05-21T10:51:10.807Z,150016
2018-05-21T10:52:10.809Z,150112
2018-05-21T10:53:10.837Z,147712
2018-05-21T10:54:10.787Z,147488
2018-05-21T10:55:10.769Z,145568
2018-05-21T10:56:10.859Z,145888
2018-05-21T10:57:10.840Z,147360
2018-05-21T10:58:10.780Z,147808
2018-05-21T10:59:10.840Z,147680
2018-05-21T11:00:10.840Z,146784
2018-05-21T11:01:10.777Z,146528
2018-05-21T11:02:10.849Z,147648
2018-05-21T11:03:10.768Z,148320
2018-05-21T11:04:10.839Z,146528
2018-05-21T11:05:10.862Z,144128
2018-05-21T11:06:10.867Z,142720
2018-05-21T11:07:10.883Z,144448
2018-05-21T11:08:10.806Z,148288
2018-05-21T11:09:10.886Z,151680
2018-05-21T11:10:10.850Z,155936
2018-05-21T11:11:10.785Z,157376
2018-05-21T11:12:10.868Z,153120
2018-05-21T11:13:10.852Z,145440
2018-05-21T11:14:10.810Z,133440
2018-05-21T11:15:10.874Z,127232
2018-05-21T11:16:10.771Z,129632
2018-05-21T11:17:10.850Z,137600
2018-05-21T11:18:10.833Z,145568
2018-05-21T11:19:10.792Z,151008
2018-05-21T11:20:10.760Z,149920
2018-05-21T11:21:10.778Z,145312
2018-05-21T11:22:10.839Z,136032
2018-05-21T11:23:10.821Z,127456
2018-05-21T11:24:10.819Z,122176
2018-05-21T11:25:10.886Z,125152
2018-05-21T11:26:10.780Z,132256
2018-05-21T11:27:10.800Z,138784
2018-05-21T11:28:10.834Z,141792
2018-05-21T11:29:10.894Z,141920
2018-05-21T11:30:10.841Z,140864
2018-05-21T11:31:10.830Z,137024
2018-05-21T11:32:10.833Z,131456
2018-05-21T11:33:10.864Z,128224
2018-05-21T11:34:10.803Z,129056
2018-05-21T11:35:10.799Z,133152
2018-05-21T11:36:10.797Z,137888
2018-05-21T11:37:10.862Z,143072
2018-05-21T11:38:10.865Z,146016
2018-05-21T11:39:10.881Z,144896
2018-05-21T11:40:10.800Z,138912
2018-05-21T11:41:10.805Z,132896
2018-05-21T11:42:10.801Z,127200
2018-05-21T11:43:10.775Z,120256
2018-05-21T11:44:10.899Z,117952
2018-05-21T11:45:10.680Z,118496
2018-05-21T11:46:10.894Z,125184
2018-05-21T11:47:10.913Z,133920
2018-05-21T11:48:10.847Z,142016
2018-05-21T11:49:10.847Z,145632
2018-05-21T11:50:10.907Z,146560
2018-05-21T11:51:10.853Z,146528
2018-05-21T11:52:10.834Z,148160
2018-05-21T11:53:10.857Z,150752
2018-05-21T11:54:10.828Z,155552
2018-05-21T11:55:10.774Z,162240
2018-05-21T11:56:10.867Z,166240
2018-05-21T11:57:10.829Z,168160
2018-05-21T11:58:10.857Z,167968
2018-05-21T11:59:10.812Z,168864
2018-05-21T12:00:10.830Z,170816
2018-05-21T12:01:10.854Z,172480
2018-05-21T12:02:10.808Z,174112
2018-05-21T12:03:10.911Z,172576
2018-05-21T12:04:10.910Z,168064
2018-05-21T12:05:10.880Z,160288
2018-05-21T12:06:10.845Z,156320
2018-05-21T12:07:10.850Z,158912
2018-05-21T12:08:10.888Z,164192
2018-05-21T12:09:10.911Z,168256
2018-05-21T12:10:10.863Z,167712
2018-05-21T12:11:10.790Z,164192
2018-05-21T12:12:10.856Z,156640
2018-05-21T12:13:10.794Z,149216
2018-05-21T12:14:10.843Z,144704
2018-05-21T12:15:10.887Z,145024
2018-05-21T12:16:10.874Z,149088
2018-05-21T12:17:10.880Z,153536
2018-05-21T12:18:10.819Z,154240
2018-05-21T12:19:10.772Z,152480
2018-05-21T12:20:10.778Z,147840
2018-05-21T12:21:10.827Z,140832
2018-05-21T12:22:10.888Z,134656
2018-05-21T12:23:10.795Z,132032
2018-05-21T12:24:10.793Z,133376
2018-05-21T12:25:10.872Z,137632
2018-05-21T12:26:10.757Z,142720
2018-05-21T12:27:10.852Z,147200
2018-05-21T12:28:10.856Z,149472
2018-05-21T12:29:10.789Z,146080
2018-05-21T12:30:10.855Z,140928
2018-05-21T12:31:10.760Z,137440
2018-05-21T12:32:10.846Z,135840
2018-05-21T12:33:10.893Z,136960
2018-05-21T12:34:10.804Z,142848
2018-05-21T12:35:10.893Z,146304
2018-05-21T12:36:10.776Z,150848
2018-05-21T12:37:10.901Z,151776
2018-05-21T12:38:10.835Z,147712
2018-05-21T12:39:10.845Z,143616
2018-05-21T12:40:10.835Z,140896
2018-05-21T12:41:10.900Z,138880
2018-05-21T12:42:10.906Z,138624
2018-05-21T12:43:10.895Z,140256
2018-05-21T12:44:10.896Z,144256
2018-05-21T12:45:10.840Z,146624
2018-05-21T12:46:10.872Z,148768
2018-05-21T12:47:10.861Z,150240
2018-05-21T12:48:10.894Z,149632
2018-05-21T12:49:10.898Z,148384
2018-05-21T12:50:10.909Z,146048
2018-05-21T12:51:10.911Z,144320
2018-05-21T12:52:10.863Z,145568
2018-05-21T12:53:10.917Z,149056
2018-05-21T12:54:10.945Z,151008
2018-05-21T12:55:10.817Z,154432
2018-05-21T12:56:10.913Z,156256
2018-05-21T12:57:10.890Z,153760
2018-05-21T12:58:10.939Z,149280
2018-05-21T12:59:10.895Z,144096
2018-05-21T13:00:10.937Z,141888
2018-05-21T13:01:10.947Z,141984
2018-05-21T13:02:10.959Z,141408
2018-05-21T13:03:10.872Z,141280
2018-05-21T13:04:10.941Z,143264
2018-05-21T13:05:11.048Z,144736
2018-05-21T13:06:10.941Z,144736
2018-05-21T13:07:10.894Z,143712
2018-05-21T13:08:10.926Z,142528